2022年5月22日

时间 代码 天气 温度 能见度 乌云 METAR/SPECI
10:00
V
24 °C 10 km+ - 120°   120° 6 kt METAR LFSL 220800Z AUTO 12006KT CAVOK 24/19 Q1013 NOSIG
09:30
V
23 °C 10 km+ - 130°   130° 4 kt METAR LFSL 220730Z AUTO 13004KT 100V170 CAVOK 23/19 Q1013 NOSIG
09:00
V
22 °C 10 km+ - Var   Var 3 kt METAR LFSL 220700Z AUTO VRB03KT CAVOK 22/19 Q1013 NOSIG
08:30
V
21 °C 10 km+ - Var   000° 0 kt METAR LFSL 220630Z AUTO 00000KT CAVOK 21/19 Q1014 NOSIG
08:00
V
20 °C 10 km+ - 130°   130° 2 kt METAR LFSL 220600Z AUTO 13002KT CAVOK 20/19 Q1013 NOSIG
07:30
V
19 °C 10 km+ - Var   000° 0 kt METAR LFSL 220530Z AUTO 00000KT CAVOK 19/18 Q1013 NOSIG
07:00
V
18 °C 10 km+ - Var   Var 2 kt METAR LFSL 220500Z AUTO VRB02KT CAVOK 18/17 Q1013 NOSIG
06:30
V
18 °C 10 km+ - Var   000° 0 kt METAR LFSL 220430Z AUTO 00000KT CAVOK 18/17 Q1013 NOSIG
06:00
V
18 °C 10 km+ - 120°   120° 1 kt METAR LFSL 220400Z AUTO 12001KT CAVOK 18/17 Q1013 NOSIG
05:30
V
18 °C 10 km+ - Var   000° 0 kt METAR LFSL 220330Z AUTO 00000KT CAVOK 18/17 Q1014 NOSIG
05:00
I
18 °C 4,3 km - Var   Var 2 kt METAR LFSL 220300Z AUTO VRB02KT 9999 4300 NSC 18/17 Q1013 NOSIG
04:30
V
18 °C 10 km+ - 120°   120° 3 kt METAR LFSL 220230Z AUTO 12003KT CAVOK 18/17 Q1013
04:00
V
18 °C 10 km+ - 360°   360° 1 kt METAR LFSL 220200Z AUTO 36001KT CAVOK 18/17 Q1014
03:30
V
18 °C 10 km+ - 190°   190° 2 kt METAR LFSL 220130Z AUTO 19002KT CAVOK 18/17 Q1014
03:00
V
19 °C 10 km+ - Var   Var 1 kt METAR LFSL 220100Z AUTO VRB01KT CAVOK 19/17 Q1014
02:30
V
19 °C 10 km+ - 130°   130° 1 kt METAR LFSL 220030Z AUTO 13001KT CAVOK 19/17 Q1014
02:00
V
19 °C 10 km+ - Var   000° 0 kt METAR LFSL 220000Z AUTO 00000KT CAVOK 19/18 Q1014
01:30
V
19 °C 10 km+ - Var   000° 0 kt METAR LFSL 212330Z AUTO 00000KT CAVOK 19/18 Q1015
01:00
V
20 °C 10 km+ - Var   Var 1 kt METAR LFSL 212300Z AUTO VRB01KT CAVOK 20/18 Q1015
00:30
V
20 °C 10 km+ - Var   000° 0 kt METAR LFSL 212230Z AUTO 00000KT CAVOK 20/18 Q1015
00:00
V
21 °C 10 km+ - Var   Var 2 kt METAR LFSL 212200Z AUTO VRB02KT CAVOK 21/18 Q1016

2022年5月21日

时间 代码 天气 温度 能见度 乌云 METAR/SPECI
23:30
V
21 °C 10 km+ - 290°   290° 2 kt METAR LFSL 212130Z AUTO 29002KT CAVOK 21/18 Q1016
23:00
V
22 °C 10 km+ - Var   Var 2 kt METAR LFSL 212100Z AUTO VRB02KT CAVOK 22/19 Q1016
22:30
V
23 °C 10 km+ - Var   Var 1 kt METAR LFSL 212030Z AUTO VRB01KT CAVOK 23/19 Q1016
22:00
V
24 °C 10 km+ - 290°   290° 2 kt METAR LFSL 212000Z AUTO 29002KT CAVOK 24/19 Q1016 NOSIG
21:30
V
26 °C 10 km+ - Var   Var 1 kt METAR LFSL 211930Z AUTO VRB01KT CAVOK 26/19 Q1016 NOSIG
21:00
V
27 °C 10 km+ - Var   Var 2 kt METAR LFSL 211900Z AUTO VRB02KT CAVOK 27/19 Q1016 NOSIG
20:30
V
27 °C 10 km+ - 320°   320° 4 kt METAR LFSL 211830Z AUTO 32004KT CAVOK 27/19 Q1016 NOSIG
20:00
V
28 °C 10 km+ - 320°   320° 6 kt METAR LFSL 211800Z AUTO 32006KT CAVOK 28/20 Q1016 NOSIG
19:30
V
29 °C 10 km+ - 330°   330° 6 kt METAR LFSL 211730Z AUTO 33006KT CAVOK 29/19 Q1016 NOSIG
19:00
V
30 °C 10 km+ - 330°   330° 5 kt METAR LFSL 211700Z AUTO 33005KT 300V010 CAVOK 30/19 Q1016 NOSIG
18:30
V
30 °C 10 km+ - 340°   340° 5 kt METAR LFSL 211630Z AUTO 34005KT 290V030 CAVOK 30/19 Q1016 NOSIG
18:00
V
31 °C 10 km+ - 310°   310° 5 kt METAR LFSL 211600Z AUTO 31005KT 270V350 CAVOK 31/19 Q1017 NOSIG
17:30
V
31 °C 10 km+ - 320°   320° 6 kt METAR LFSL 211530Z AUTO 32006KT 280V360 CAVOK 31/19 Q1017 NOSIG
17:00
V
31 °C 10 km+ - 320°   320° 5 kt METAR LFSL 211500Z AUTO 32005KT 280V350 CAVOK 31/18 Q1017 NOSIG
16:30
V
32 °C 10 km+ - Var   Var 3 kt METAR LFSL 211430Z AUTO VRB03KT CAVOK 32/15 Q1017 NOSIG
16:00
V
31 °C 10 km+ - Var   Var 5 kt METAR LFSL 211400Z AUTO VRB05KT CAVOK 31/14 Q1018 NOSIG
15:30
V
31 °C 10 km+ - 100°   100° 5 kt METAR LFSL 211330Z AUTO 10005KT 040V160 CAVOK 31/14 Q1018 NOSIG
15:00
V
30 °C 10 km+ - Var   Var 3 kt METAR LFSL 211300Z AUTO VRB03KT CAVOK 30/14 Q1019 NOSIG
14:30
V
30 °C 10 km+ - 100°   100° 5 kt METAR LFSL 211230Z AUTO 10005KT 020V190 CAVOK 30/14 Q1019 NOSIG
14:00
V
29 °C 10 km+ - 080°   080° 5 kt METAR LFSL 211200Z AUTO 08005KT 360V150 CAVOK 29/15 Q1019 NOSIG
13:30
V
29 °C 10 km+ - Var   Var 3 kt METAR LFSL 211130Z AUTO VRB03KT CAVOK 29/16 Q1019 NOSIG
13:00
V
28 °C 10 km+ - 080°   080° 4 kt METAR LFSL 211100Z AUTO 08004KT 360V140 CAVOK 28/14 Q1020 NOSIG
12:30
V
28 °C 10 km+ - 010°   010° 4 kt METAR LFSL 211030Z AUTO 01004KT 310V090 CAVOK 28/16 Q1020 NOSIG
12:00
V
27 °C 10 km+ - 110°   110° 4 kt METAR LFSL 211000Z AUTO 11004KT 050V210 CAVOK 27/14 Q1020 NOSIG
11:30
V
26 °C 10 km+ - Var   Var 2 kt METAR LFSL 210930Z AUTO VRB02KT CAVOK 26/15 Q1020 NOSIG
11:00
V
25 °C 10 km+ - 100°   100° 4 kt METAR LFSL 210900Z AUTO 10004KT 020V180 CAVOK 25/14 Q1021 NOSIG
10:30
V
24 °C 10 km+ - 100°   100° 4 kt METAR LFSL 210830Z AUTO 10004KT 050V180 CAVOK 24/14 Q1021 NOSIG
10:00
V
23 °C 10 km+ - 160°   160° 5 kt METAR LFSL 210800Z AUTO 16005KT 130V200 CAVOK 23/14 Q1021 NOSIG
09:30
V
22 °C 10 km+ - 110°   110° 4 kt METAR LFSL 210730Z AUTO 11004KT 080V140 CAVOK 22/15 Q1021 NOSIG
09:00
V
21 °C 10 km+ - 130°   130° 5 kt METAR LFSL 210700Z AUTO 13005KT 100V180 CAVOK 21/14 Q1021 NOSIG
08:30
V
19 °C 10 km+ - 120°   120° 6 kt METAR LFSL 210630Z AUTO 12006KT CAVOK 19/15 Q1021 NOSIG
08:00
V
18 °C 10 km+ - 120°   120° 5 kt METAR LFSL 210600Z AUTO 12005KT CAVOK 18/16 Q1021 NOSIG
07:30
V
16 °C 10 km+ - 110°   110° 3 kt METAR LFSL 210530Z AUTO 11003KT CAVOK 16/15 Q1021 NOSIG
07:00
V
16 °C 10 km+ - 120°   120° 1 kt METAR LFSL 210500Z AUTO 12001KT CAVOK 16/15 Q1022 NOSIG
06:30
V
15 °C 10 km+ - 130°   130° 2 kt METAR LFSL 210430Z AUTO 13002KT CAVOK 15/14 Q1022 NOSIG
06:00
V
15 °C 10 km+ - 190°   190° 1 kt METAR LFSL 210400Z AUTO 19001KT CAVOK 15/14 Q1022 NOSIG
05:30
V
15 °C 10 km+ - Var   000° 0 kt METAR LFSL 210330Z AUTO 00000KT CAVOK 15/14 Q1022 NOSIG
05:00
V
15 °C 10 km+ - Var   000° 0 kt METAR LFSL 210300Z AUTO 00000KT CAVOK 15/14 Q1022 NOSIG
04:30
V
15 °C 10 km+ - Var   000° 0 kt METAR LFSL 210230Z AUTO 00000KT CAVOK 15/14 Q1022
04:00
V
15 °C 10 km+ - Var   000° 0 kt METAR LFSL 210200Z AUTO 00000KT CAVOK 15/14 Q1023
03:30
V
15 °C 10 km+ - Var   000° 0 kt METAR LFSL 210130Z AUTO 00000KT CAVOK 15/14 Q1023
03:00
V
16 °C 10 km+ - Var   000° 0 kt METAR LFSL 210100Z AUTO 00000KT CAVOK 16/14 Q1023
02:30
V
16 °C 10 km+ - Var   000° 0 kt METAR LFSL 210030Z AUTO 00000KT CAVOK 16/14 Q1023
02:00
V
17 °C 10 km+ - Var   Var 1 kt METAR LFSL 210000Z AUTO VRB01KT CAVOK 17/15 Q1023
01:30
V
17 °C 10 km+ - Var   000° 0 kt METAR LFSL 202330Z AUTO 00000KT CAVOK 17/15 Q1024
01:00
V
18 °C 10 km+ - Var   000° 0 kt METAR LFSL 202300Z AUTO 00000KT CAVOK 18/15 Q1024
00:30
V
19 °C 10 km+ - 280°   280° 3 kt METAR LFSL 202230Z AUTO 28003KT CAVOK 19/15 Q1024
00:00
V
20 °C 10 km+ - Var   Var 2 kt METAR LFSL 202200Z AUTO VRB02KT CAVOK 20/16 Q1024

2022年5月20日

时间 代码 天气 温度 能见度 乌云 METAR/SPECI
23:30
V
20 °C 10 km+ - 320°   320° 5 kt METAR LFSL 202130Z AUTO 32005KT CAVOK 20/16 Q1024
23:00
V
20 °C 10 km+ - 300°   300° 4 kt METAR LFSL 202100Z AUTO 30004KT CAVOK 20/15 Q1024
22:30
V
21 °C 10 km+ - 290°   290° 4 kt METAR LFSL 202030Z AUTO 29004KT 250V320 CAVOK 21/16 Q1024
22:00
V
22 °C 10 km+ - Var   Var 3 kt METAR LFSL 202000Z AUTO VRB03KT CAVOK 22/16 Q1023 NOSIG
21:30
V
23 °C 10 km+ - 280°   280° 4 kt METAR LFSL 201930Z AUTO 28004KT CAVOK 23/16 Q1023 NOSIG
21:00
V
24 °C 10 km+ - 280°   280° 4 kt METAR LFSL 201900Z AUTO 28004KT 240V300 CAVOK 24/16 Q1023 NOSIG
20:30
V
25 °C 10 km+ - 270°   270° 4 kt METAR LFSL 201830Z AUTO 27004KT 230V310 CAVOK 25/16 Q1023 NOSIG
20:00
V
26 °C 10 km+ - 270°   270° 4 kt METAR LFSL 201800Z AUTO 27004KT 220V310 CAVOK 26/16 Q1023 NOSIG
19:30
V
27 °C 10 km+ - 280°   280° 5 kt METAR LFSL 201730Z AUTO 28005KT 210V320 CAVOK 27/15 Q1023 NOSIG
19:00
V
27 °C 10 km+ - 270°   270° 4 kt METAR LFSL 201700Z AUTO 27004KT 140V310 CAVOK 27/15 Q1023 NOSIG
18:30
V
28 °C 10 km+ - 260°   260° 5 kt METAR LFSL 201630Z AUTO 26005KT 200V300 CAVOK 28/17 Q1023 NOSIG
18:00
V
28 °C 10 km+ - 270°   270° 6 kt METAR LFSL 201600Z AUTO 27006KT 200V330 CAVOK 28/16 Q1023 NOSIG
17:30
V
28 °C 10 km+ - 260°   260° 6 kt METAR LFSL 201530Z AUTO 26006KT 190V320 CAVOK 28/16 Q1023 NOSIG
17:00
V
29 °C 10 km+ - 260°   260° 4 kt METAR LFSL 201500Z AUTO 26004KT 180V330 CAVOK 29/15 Q1023 NOSIG
16:30
V
29 °C 10 km+ - 240°   240° 5 kt METAR LFSL 201430Z AUTO 24005KT 180V310 CAVOK 29/15 Q1023 NOSIG
16:00
V
29 °C 10 km+ - 230°   230° 5 kt METAR LFSL 201400Z AUTO 23005KT 160V330 CAVOK 29/14 Q1023 NOSIG
15:30
V
28 °C 10 km+ - 240°   240° 5 kt METAR LFSL 201330Z AUTO 24005KT 170V310 CAVOK 28/15 Q1022 NOSIG
15:00
V
28 °C 10 km+ - 260°   260° 5 kt METAR LFSL 201300Z AUTO 26005KT 210V300 CAVOK 28/16 Q1022 NOSIG
14:30
V
28 °C 10 km+ - 220°   220° 6 kt METAR LFSL 201230Z AUTO 22006KT 180V290 CAVOK 28/15 Q1022 NOSIG
14:00
V
29 °C 10 km+ - Var   Var 5 kt METAR LFSL 201200Z AUTO VRB05KT CAVOK 29/15 Q1022 NOSIG
13:30
V
29 °C 10 km+ - 220°   220° 5 kt METAR LFSL 201130Z AUTO 22005KT 170V300 CAVOK 29/15 Q1022 NOSIG
13:00
V
28 °C 10 km+ - 200°   200° 6 kt METAR LFSL 201100Z AUTO 20006KT 170V270 CAVOK 28/14 Q1022 NOSIG
12:30
V
28 °C 10 km+ - 160°   160° 7 kt METAR LFSL 201030Z AUTO 16007KT 120V220 CAVOK 28/13 Q1021 NOSIG
12:00
V
27 °C 10 km+ - 180°   180° 8 kt METAR LFSL 201000Z AUTO 18008KT 130V220 CAVOK 27/13 Q1021 NOSIG
11:30
V
27 °C 10 km+ - 170°   170° 9 kt METAR LFSL 200930Z AUTO 17009KT 150V220 CAVOK 27/11 Q1021 NOSIG
11:00
V
26 °C 10 km+ - 160°   160° 12 kt METAR LFSL 200900Z AUTO 16012KT 120V200 CAVOK 26/11 Q1021 NOSIG
10:30
V
25 °C 10 km+ - 170°   170° 10 kt METAR LFSL 200830Z AUTO 17010KT 140V230 CAVOK 25/11 Q1021 NOSIG
10:00
V
24 °C 10 km+ - 180°   180° 9 kt METAR LFSL 200800Z AUTO 18009KT 150V220 CAVOK 24/11 Q1021 NOSIG
09:30
V
24 °C 10 km+ - 140°   140° 8 kt METAR LFSL 200730Z AUTO 14008KT 100V170 CAVOK 24/11 Q1020 NOSIG
09:00
V
23 °C 10 km+ - 140°   140° 6 kt METAR LFSL 200700Z AUTO 14006KT 100V170 CAVOK 23/11 Q1020 NOSIG
较旧的数据

下载我们的应用程序

在您的手机和平板电脑上轻松访问所有航空天气。
有许多网站上没有的功能,如离线支持和个人机场列表。

Studio Eveline

Benalmádena
España

我们和第三方通过cookies跟踪您在我们网站上的上网行为。如果您继续,我们认为您同意我们的cookie政策。 了解更多